Sebring, FL (33870)

9:53 AM EST on January 26, 2015 (GMT -0500)
North Lake Jackson | Change Station
CLOSE
Current Station
Personal Weather Station
Location: Sebring, FL
Elevation: 115 ft
Nearby Weather Stations
Active Advisory: Lake Wind Advisory

Elev 115 ft 27.51 °N, 81.48 °W | Updated 3 minutes ago

Mostly Cloudy
Mostly Cloudy
59.7 °F
Feels Like 59.7 °F
N
8.1
Wind Variable Wind from NW
Gusts 12.1 mph

Today
High -- | Low -- °F
--% Chance of Precip.
Yesterday
High -- | Low -- °F
Precip. -- in
7:14 AM 6:01 PM
Waxing Crescent, 44% visible
Pressure 29.94 in
Visibility 10.0 miles
Clouds Scattered Clouds 5500 ft
Scattered Clouds 7500 ft
Overcast 8500 ft
Dew Point 59 °F
Humidity 98%
Rainfall 0.13 in
Snow Depth Not available.
UV 1 out of 12
Pollen 8.50 out of 12
Air Quality Not available.
Flu Activity Not available.
METAR KOBE 261435Z AUTO 28005KT 10SM SCT055 SCT075 OVC085 15/14 A2994 RMK AO2

More Conditions Fewer Conditions

Pressure 29.94 in
Visibility 10.0 miles
Clouds Scattered Clouds 5500 ft
Scattered Clouds 7500 ft
Overcast 8500 ft
Dew Point 59 °F
Humidity 98%
Rainfall 0.13 in
Snow Depth Not available.
UV 1 out of 12
Pollen 8.50 out of 12
Air Quality Not available.
Flu Activity Not available.
METAR KOBE 261435Z AUTO 28005KT 10SM SCT055 SCT075 OVC085 15/14 A2994 RMK AO2

More Conditions Fewer Conditions

10-Day Weather Forecast

Almanac

Astronomy

Jan. 26, 2015 Rise Set
Actual Time
Civil Twilight
Nautical Twilight
Astronomical Twilight
Moon
Length of Visible Light
Length of Day
Tomorrow will be .
, % of the Moon is Illuminated

Today's Extremes

State Highs State Lows

Community

WunderPhotos

Upload Photos

1,790,226 photos uploaded!

WunderBlogs® & News

Nearby

Air Quality

  Air Quality AQ Index Pollutant
Not available.

Snow Depth

Station Depth Elevation

Earthquake Activity

City Distance Mag. Time & Date
Minimum magnitude displayed is 2.5.

Coastal Water Temperatures

Place Temperature

Nearby Weather Stations